createdAt,value
2023-04-01T13:03:54.158Z,18.1821
2023-04-01T13:04:55.780Z,18.2088
2023-04-01T13:05:57.148Z,18.2554
2023-04-01T13:06:58.679Z,18.3100
2023-04-01T13:15:21.828Z,17.4988
2023-04-01T13:16:23.394Z,17.3400
2023-04-01T13:17:24.926Z,17.1977
2023-04-01T13:18:26.435Z,17.0977
2023-04-01T13:19:27.902Z,16.9904
2023-04-01T13:20:29.445Z,16.8804
2023-04-01T13:21:30.990Z,16.7935
2023-04-01T13:22:32.512Z,16.6988
2023-04-01T13:23:33.983Z,16.6346
2023-04-01T13:24:35.780Z,16.5977
2023-04-01T13:25:37.054Z,16.5535
2023-04-01T13:26:38.568Z,16.5131
2023-04-01T13:27:40.130Z,16.4746
2023-04-01T13:28:41.631Z,16.4323
2023-04-01T13:29:43.206Z,16.3958
2023-04-01T13:30:44.691Z,16.3727
2023-04-01T13:31:46.225Z,16.3485
2023-04-01T13:32:47.839Z,16.3300
2023-04-01T13:33:49.214Z,16.3119
2023-04-01T13:34:50.838Z,16.2908
2023-04-01T13:35:52.315Z,16.2504
2023-04-01T13:36:53.827Z,16.2108
2023-04-01T13:37:55.353Z,16.1927
2023-04-01T13:38:56.857Z,16.1808
2023-04-01T13:39:58.374Z,16.1777
2023-04-01T13:41:03.498Z,16.1654
2023-04-01T16:09:08.464Z,16.4283
2023-04-01T16:10:09.962Z,16.4319
2023-04-01T16:11:11.504Z,16.4438
2023-04-01T16:12:13.039Z,16.4512
2023-04-01T16:13:14.552Z,16.4638
2023-04-01T16:14:16.085Z,16.4569
2023-04-01T16:15:17.619Z,16.4558
2023-04-01T16:16:19.239Z,16.4485
2023-04-01T16:17:20.732Z,16.4404
2023-04-01T16:18:22.202Z,16.4450
2023-04-01T16:19:23.857Z,16.4415
2023-04-01T16:20:25.260Z,16.4335
2023-04-01T16:21:26.780Z,16.4346
2023-04-01T16:22:28.322Z,16.4192
2023-04-01T16:23:29.841Z,16.4169
2023-04-01T16:24:31.383Z,16.4115
2023-04-01T16:25:33.056Z,16.4104
2023-04-01T16:26:34.451Z,16.4081
2023-04-01T16:27:36.058Z,16.4077
2023-04-01T16:28:37.622Z,16.3969
2023-04-01T16:29:39.130Z,16.3892
2023-04-01T16:30:40.657Z,16.3912
2023-04-01T16:31:42.103Z,16.3862
2023-04-01T16:32:43.868Z,16.3796
2023-04-01T16:33:45.140Z,16.3842
2023-04-01T16:34:46.682Z,16.3846
2023-04-01T16:35:48.337Z,16.3842
2023-04-01T16:36:49.925Z,16.3812
2023-04-01T16:37:51.287Z,16.3877
2023-04-01T16:38:53.013Z,16.3854
2023-04-01T16:39:54.321Z,16.3819
2023-04-01T16:40:55.858Z,16.3723
2023-04-01T16:41:57.390Z,16.3738
2023-04-01T16:42:58.911Z,16.3715
2023-04-01T16:44:00.434Z,16.3708
2023-04-01T16:45:01.970Z,16.3669
2023-04-01T16:46:03.537Z,16.3565
2023-04-01T16:47:05.073Z,16.3531
2023-04-01T16:48:06.686Z,16.3488
2023-04-01T16:49:08.162Z,16.3488
2023-04-01T16:50:09.596Z,16.3512
2023-04-01T16:51:11.183Z,16.3481
2023-04-01T16:52:12.859Z,16.3435
2023-04-01T16:53:14.361Z,16.3362
2023-04-01T16:54:15.708Z,16.3285
2023-04-01T16:55:17.254Z,16.3162
2023-04-01T16:56:18.784Z,16.3192
2023-04-01T16:57:20.385Z,16.3085
2023-04-01T16:58:21.906Z,16.3096
2023-04-01T16:59:23.596Z,16.3331
2023-04-01T17:00:25.703Z,16.3427
2023-04-01T17:01:28.760Z,16.3173
2023-04-01T17:02:28.017Z,16.2808
2023-04-01T17:03:29.474Z,16.2700
2023-04-01T17:04:31.061Z,16.2462
2023-04-01T17:05:32.534Z,16.2308
2023-04-01T17:06:34.053Z,16.2081
2023-04-01T17:07:35.608Z,16.1873
2023-04-01T17:08:37.152Z,16.1954
2023-04-01T17:09:38.649Z,16.1931
2023-04-01T17:10:40.176Z,16.1773
2023-04-01T17:11:41.795Z,16.1823
2023-04-01T17:12:43.407Z,16.1823
2023-04-01T17:13:44.884Z,16.1704
2023-04-01T17:14:46.670Z,16.1431
2023-04-01T17:15:48.063Z,16.1081
2023-04-01T17:16:49.342Z,16.1069
2023-04-01T17:17:50.956Z,16.1088
2023-04-01T17:18:52.386Z,16.1112
2023-04-01T17:19:53.930Z,16.1112
2023-04-01T17:20:55.492Z,16.1123
2023-04-01T17:21:57.002Z,16.1146
2023-04-01T17:22:58.608Z,16.1142
2023-04-01T17:24:00.063Z,16.1150
2023-04-01T17:25:01.564Z,16.1177
2023-04-01T17:26:03.119Z,16.1262
2023-04-01T17:27:04.657Z,16.1285
2023-04-01T17:28:06.158Z,16.1262
2023-04-01T17:29:07.728Z,16.1269
2023-04-01T17:30:09.207Z,16.1277
2023-04-01T17:31:10.853Z,16.1323
2023-04-01T17:32:12.262Z,16.1358
2023-04-01T17:33:13.826Z,16.1404
2023-04-01T17:34:15.344Z,16.1462
2023-04-01T17:35:16.896Z,16.1527
2023-04-01T17:36:18.381Z,16.1569
2023-04-01T17:37:19.981Z,16.1646
2023-04-01T17:38:21.463Z,16.1646
2023-04-01T17:39:22.954Z,16.1665
2023-04-01T17:40:24.658Z,16.1588
2023-04-01T17:41:26.033Z,16.1650
2023-04-01T17:42:27.533Z,16.1677
2023-04-01T17:43:29.084Z,16.1577
2023-04-01T17:44:30.690Z,16.1515
2023-04-01T17:45:32.231Z,16.1550
2023-04-01T17:46:33.733Z,16.1546
2023-04-01T17:47:35.204Z,16.1581
2023-04-01T17:48:36.784Z,16.1615
2023-04-01T17:49:38.278Z,16.1558
2023-04-01T17:50:39.791Z,16.1527
2023-04-01T17:51:41.462Z,16.1508
2023-04-01T17:52:42.803Z,16.1504
2023-04-01T17:53:44.349Z,16.1512
2023-04-01T17:54:45.873Z,16.1496
2023-04-01T17:55:47.430Z,16.1446
2023-04-01T17:56:48.998Z,16.1473
2023-04-01T17:57:50.450Z,16.1438
2023-04-01T17:58:52.018Z,16.1512
2023-04-01T17:59:53.548Z,16.1542
2023-04-01T18:00:55.028Z,16.1569
2023-04-01T18:01:56.593Z,16.1485
2023-04-01T18:02:58.131Z,16.1292
2023-04-01T18:04:00.150Z,16.1265
2023-04-01T18:05:01.166Z,16.1300
2023-04-01T18:06:02.723Z,16.1369
2023-04-01T18:07:04.204Z,16.1442
2023-04-01T18:08:05.703Z,16.1481
2023-04-01T18:09:07.254Z,16.1423
2023-04-01T18:10:08.825Z,16.1485
2023-04-01T18:11:10.305Z,16.1515
2023-04-01T18:12:11.804Z,16.1512
2023-04-01T18:13:13.341Z,16.1492
2023-04-01T18:14:14.943Z,16.1515
2023-04-01T18:15:16.421Z,16.1519
2023-04-01T18:16:18.134Z,16.1577
2023-04-01T18:17:19.515Z,16.1542
2023-04-01T18:18:20.984Z,16.1523
2023-04-01T18:19:22.527Z,16.1531
2023-04-01T18:20:24.028Z,16.1519
2023-04-01T18:21:25.582Z,16.1488
2023-04-01T18:22:27.092Z,16.1485
2023-04-01T18:23:28.776Z,16.1473
2023-04-01T18:24:30.162Z,16.1465
2023-04-01T18:25:31.664Z,16.1469
2023-04-01T18:26:33.237Z,16.1477
2023-04-01T18:27:34.765Z,16.1515
2023-04-01T18:28:36.235Z,16.1519
2023-04-01T18:29:37.856Z,16.1554
2023-04-01T18:30:39.321Z,16.1577
2023-04-01T18:31:40.899Z,16.1596
2023-04-01T18:32:42.497Z,16.1562
2023-04-01T18:33:43.958Z,16.1565
2023-04-01T18:34:45.440Z,16.1554
2023-04-01T18:35:47.051Z,16.1615
2023-04-01T18:36:49.437Z,16.1615
